sensor_id;sensor_type;location;lat;lon;timestamp;P1;durP1;ratioP1;P2;durP2;ratioP2
3101;SDS011;1561;42.666;23.392;2022-08-21T00:01:57;9.63;;;7.45;;
3101;SDS011;1561;42.666;23.392;2022-08-21T00:04:27;9.73;;;7.03;;
3101;SDS011;1561;42.666;23.392;2022-08-21T00:06:56;8.35;;;6.68;;
3101;SDS011;1561;42.666;23.392;2022-08-21T00:09:39;7.40;;;6.03;;
3101;SDS011;1561;42.666;23.392;2022-08-21T00:12:08;6.35;;;5.57;;
3101;SDS011;1561;42.666;23.392;2022-08-21T00:14:36;10.18;;;8.32;;
3101;SDS011;1561;42.666;23.392;2022-08-21T00:17:04;18.80;;;10.70;;
3101;SDS011;1561;42.666;23.392;2022-08-21T00:19:38;11.18;;;9.40;;
3101;SDS011;1561;42.666;23.392;2022-08-21T00:22:06;9.85;;;7.63;;
3101;SDS011;1561;42.666;23.392;2022-08-21T00:24:34;11.63;;;8.63;;
3101;SDS011;1561;42.666;23.392;2022-08-21T00:27:03;11.88;;;8.45;;
3101;SDS011;1561;42.666;23.392;2022-08-21T00:29:32;14.48;;;9.40;;
3101;SDS011;1561;42.666;23.392;2022-08-21T00:32:01;11.07;;;7.82;;
3101;SDS011;1561;42.666;23.392;2022-08-21T00:34:30;10.65;;;9.02;;
3101;SDS011;1561;42.666;23.392;2022-08-21T00:37:00;11.45;;;8.93;;
3101;SDS011;1561;42.666;23.392;2022-08-21T00:39:27;13.80;;;10.27;;
3101;SDS011;1561;42.666;23.392;2022-08-21T00:41:57;10.95;;;9.43;;
3101;SDS011;1561;42.666;23.392;2022-08-21T00:44:29;11.40;;;9.40;;
3101;SDS011;1561;42.666;23.392;2022-08-21T00:46:57;10.70;;;9.60;;
3101;SDS011;1561;42.666;23.392;2022-08-21T00:49:27;14.02;;;10.13;;
3101;SDS011;1561;42.666;23.392;2022-08-21T00:51:59;11.75;;;10.55;;
3101;SDS011;1561;42.666;23.392;2022-08-21T00:54:31;14.00;;;10.35;;
3101;SDS011;1561;42.666;23.392;2022-08-21T00:57:00;15.23;;;11.25;;
3101;SDS011;1561;42.666;23.392;2022-08-21T00:59:35;12.93;;;9.98;;
3101;SDS011;1561;42.666;23.392;2022-08-21T01:02:04;15.15;;;12.02;;
3101;SDS011;1561;42.666;23.392;2022-08-21T01:04:33;13.77;;;11.07;;
3101;SDS011;1561;42.666;23.392;2022-08-21T01:07:04;13.73;;;9.82;;
3101;SDS011;1561;42.666;23.392;2022-08-21T01:09:34;10.88;;;9.68;;
3101;SDS011;1561;42.666;23.392;2022-08-21T01:12:09;10.73;;;9.32;;
3101;SDS011;1561;42.666;23.392;2022-08-21T01:14:41;11.82;;;9.07;;
3101;SDS011;1561;42.666;23.392;2022-08-21T01:17:11;10.52;;;8.90;;
3101;SDS011;1561;42.666;23.392;2022-08-21T01:19:43;13.80;;;10.25;;
3101;SDS011;1561;42.666;23.392;2022-08-21T01:22:12;13.88;;;8.18;;
3101;SDS011;1561;42.666;23.392;2022-08-21T01:24:41;11.18;;;7.47;;
3101;SDS011;1561;42.666;23.392;2022-08-21T01:27:09;9.25;;;7.68;;
3101;SDS011;1561;42.666;23.392;2022-08-21T01:29:38;12.77;;;9.80;;
3101;SDS011;1561;42.666;23.392;2022-08-21T01:32:13;14.82;;;7.57;;
3101;SDS011;1561;42.666;23.392;2022-08-21T01:34:43;12.18;;;9.32;;
3101;SDS011;1561;42.666;23.392;2022-08-21T01:37:16;14.10;;;9.40;;
3101;SDS011;1561;42.666;23.392;2022-08-21T01:39:45;11.15;;;8.52;;
3101;SDS011;1561;42.666;23.392;2022-08-21T01:42:13;10.68;;;7.32;;
3101;SDS011;1561;42.666;23.392;2022-08-21T01:44:43;8.45;;;7.38;;
3101;SDS011;1561;42.666;23.392;2022-08-21T01:47:11;12.65;;;8.00;;
3101;SDS011;1561;42.666;23.392;2022-08-21T01:49:40;10.77;;;8.20;;
3101;SDS011;1561;42.666;23.392;2022-08-21T01:52:09;10.07;;;8.35;;
3101;SDS011;1561;42.666;23.392;2022-08-21T01:54:39;9.90;;;8.70;;
3101;SDS011;1561;42.666;23.392;2022-08-21T01:57:06;13.57;;;9.20;;
3101;SDS011;1561;42.666;23.392;2022-08-21T01:59:35;14.25;;;10.35;;
3101;SDS011;1561;42.666;23.392;2022-08-21T02:02:04;11.07;;;9.88;;
3101;SDS011;1561;42.666;23.392;2022-08-21T02:04:32;16.88;;;13.23;;
3101;SDS011;1561;42.666;23.392;2022-08-21T02:07:05;25.52;;;16.42;;
3101;SDS011;1561;42.666;23.392;2022-08-21T02:09:32;22.20;;;15.27;;
3101;SDS011;1561;42.666;23.392;2022-08-21T02:12:01;21.27;;;13.48;;
3101;SDS011;1561;42.666;23.392;2022-08-21T02:14:28;23.55;;;15.77;;
3101;SDS011;1561;42.666;23.392;2022-08-21T02:16:57;21.17;;;14.80;;
3101;SDS011;1561;42.666;23.392;2022-08-21T02:19:26;22.40;;;15.40;;
3101;SDS011;1561;42.666;23.392;2022-08-21T02:21:52;26.70;;;16.25;;
3101;SDS011;1561;42.666;23.392;2022-08-21T02:24:21;23.58;;;15.75;;
3101;SDS011;1561;42.666;23.392;2022-08-21T02:26:49;23.42;;;14.68;;
3101;SDS011;1561;42.666;23.392;2022-08-21T02:29:18;18.98;;;13.98;;
3101;SDS011;1561;42.666;23.392;2022-08-21T02:31:46;20.27;;;13.45;;
3101;SDS011;1561;42.666;23.392;2022-08-21T02:34:12;19.42;;;13.73;;
3101;SDS011;1561;42.666;23.392;2022-08-21T02:36:39;22.35;;;14.13;;
3101;SDS011;1561;42.666;23.392;2022-08-21T02:39:11;20.48;;;14.00;;
3101;SDS011;1561;42.666;23.392;2022-08-21T02:41:42;19.05;;;13.38;;
3101;SDS011;1561;42.666;23.392;2022-08-21T02:44:09;17.83;;;13.05;;
3101;SDS011;1561;42.666;23.392;2022-08-21T02:46:38;18.75;;;13.65;;
3101;SDS011;1561;42.666;23.392;2022-08-21T02:49:07;18.17;;;13.05;;
3101;SDS011;1561;42.666;23.392;2022-08-21T02:51:36;16.27;;;12.65;;
3101;SDS011;1561;42.666;23.392;2022-08-21T02:54:05;11.77;;;9.00;;
3101;SDS011;1561;42.666;23.392;2022-08-21T02:56:33;13.52;;;10.25;;
3101;SDS011;1561;42.666;23.392;2022-08-21T02:59:10;10.63;;;9.25;;
3101;SDS011;1561;42.666;23.392;2022-08-21T03:01:39;17.52;;;9.13;;
3101;SDS011;1561;42.666;23.392;2022-08-21T03:04:06;10.77;;;7.70;;
3101;SDS011;1561;42.666;23.392;2022-08-21T03:06:35;11.40;;;8.48;;
3101;SDS011;1561;42.666;23.392;2022-08-21T03:09:08;11.40;;;7.35;;
3101;SDS011;1561;42.666;23.392;2022-08-21T03:11:36;9.65;;;6.75;;
3101;SDS011;1561;42.666;23.392;2022-08-21T03:14:04;9.40;;;7.55;;
3101;SDS011;1561;42.666;23.392;2022-08-21T03:16:51;9.07;;;8.02;;
3101;SDS011;1561;42.666;23.392;2022-08-21T03:19:19;8.88;;;6.63;;
3101;SDS011;1561;42.666;23.392;2022-08-21T03:21:48;8.55;;;6.95;;
3101;SDS011;1561;42.666;23.392;2022-08-21T03:24:15;10.32;;;5.85;;
3101;SDS011;1561;42.666;23.392;2022-08-21T03:26:43;7.55;;;5.95;;
3101;SDS011;1561;42.666;23.392;2022-08-21T03:29:12;6.82;;;6.07;;
3101;SDS011;1561;42.666;23.392;2022-08-21T03:31:42;8.90;;;6.20;;
3101;SDS011;1561;42.666;23.392;2022-08-21T03:34:16;7.43;;;6.65;;
3101;SDS011;1561;42.666;23.392;2022-08-21T03:36:44;13.70;;;7.85;;
3101;SDS011;1561;42.666;23.392;2022-08-21T03:39:12;11.00;;;9.18;;
3101;SDS011;1561;42.666;23.392;2022-08-21T03:41:40;13.60;;;9.32;;
3101;SDS011;1561;42.666;23.392;2022-08-21T03:44:15;15.77;;;11.40;;
3101;SDS011;1561;42.666;23.392;2022-08-21T03:46:42;14.10;;;11.48;;
3101;SDS011;1561;42.666;23.392;2022-08-21T03:49:10;17.00;;;11.68;;
3101;SDS011;1561;42.666;23.392;2022-08-21T03:51:38;16.65;;;11.20;;
3101;SDS011;1561;42.666;23.392;2022-08-21T03:54:08;16.98;;;12.15;;
3101;SDS011;1561;42.666;23.392;2022-08-21T03:56:36;16.48;;;12.90;;
3101;SDS011;1561;42.666;23.392;2022-08-21T03:59:06;18.58;;;12.32;;
3101;SDS011;1561;42.666;23.392;2022-08-21T04:01:33;17.38;;;13.63;;
3101;SDS011;1561;42.666;23.392;2022-08-21T04:04:17;16.35;;;12.90;;
3101;SDS011;1561;42.666;23.392;2022-08-21T04:06:48;15.70;;;11.95;;
3101;SDS011;1561;42.666;23.392;2022-08-21T04:09:18;15.90;;;12.65;;
3101;SDS011;1561;42.666;23.392;2022-08-21T04:11:48;16.17;;;12.45;;
3101;SDS011;1561;42.666;23.392;2022-08-21T04:14:16;14.82;;;13.15;;
3101;SDS011;1561;42.666;23.392;2022-08-21T04:16:46;17.05;;;13.15;;
3101;SDS011;1561;42.666;23.392;2022-08-21T04:19:15;18.13;;;13.57;;
3101;SDS011;1561;42.666;23.392;2022-08-21T04:21:43;17.77;;;13.90;;
3101;SDS011;1561;42.666;23.392;2022-08-21T04:24:14;19.67;;;14.77;;
3101;SDS011;1561;42.666;23.392;2022-08-21T04:26:42;20.50;;;15.10;;
3101;SDS011;1561;42.666;23.392;2022-08-21T04:29:09;20.20;;;15.60;;
3101;SDS011;1561;42.666;23.392;2022-08-21T04:31:49;21.63;;;16.08;;
3101;SDS011;1561;42.666;23.392;2022-08-21T04:34:19;20.95;;;15.73;;
3101;SDS011;1561;42.666;23.392;2022-08-21T04:36:47;17.80;;;13.50;;
3101;SDS011;1561;42.666;23.392;2022-08-21T04:39:21;22.40;;;14.77;;
3101;SDS011;1561;42.666;23.392;2022-08-21T04:41:57;21.05;;;14.02;;
3101;SDS011;1561;42.666;23.392;2022-08-21T04:44:25;17.08;;;13.77;;
3101;SDS011;1561;42.666;23.392;2022-08-21T04:46:53;17.15;;;13.43;;
3101;SDS011;1561;42.666;23.392;2022-08-21T04:49:21;19.33;;;11.75;;
3101;SDS011;1561;42.666;23.392;2022-08-21T04:51:49;19.30;;;13.98;;
3101;SDS011;1561;42.666;23.392;2022-08-21T04:54:19;17.48;;;14.27;;
3101;SDS011;1561;42.666;23.392;2022-08-21T04:56:48;22.23;;;16.08;;
3101;SDS011;1561;42.666;23.392;2022-08-21T04:59:22;14.48;;;11.20;;
3101;SDS011;1561;42.666;23.392;2022-08-21T05:01:53;12.13;;;10.40;;
3101;SDS011;1561;42.666;23.392;2022-08-21T05:04:24;18.33;;;13.98;;
3101;SDS011;1561;42.666;23.392;2022-08-21T05:06:56;12.32;;;10.15;;
3101;SDS011;1561;42.666;23.392;2022-08-21T05:09:27;12.90;;;10.75;;
3101;SDS011;1561;42.666;23.392;2022-08-21T05:11:56;13.02;;;10.25;;
3101;SDS011;1561;42.666;23.392;2022-08-21T05:14:23;16.75;;;9.73;;
3101;SDS011;1561;42.666;23.392;2022-08-21T05:16:52;13.07;;;9.95;;
3101;SDS011;1561;42.666;23.392;2022-08-21T05:19:21;12.48;;;9.38;;
3101;SDS011;1561;42.666;23.392;2022-08-21T05:21:48;14.52;;;10.77;;
3101;SDS011;1561;42.666;23.392;2022-08-21T05:24:16;10.75;;;9.65;;
3101;SDS011;1561;42.666;23.392;2022-08-21T05:26:44;13.00;;;10.55;;
3101;SDS011;1561;42.666;23.392;2022-08-21T05:29:14;11.00;;;7.82;;
3101;SDS011;1561;42.666;23.392;2022-08-21T05:31:46;11.77;;;8.95;;
3101;SDS011;1561;42.666;23.392;2022-08-21T05:34:15;9.30;;;8.30;;
3101;SDS011;1561;42.666;23.392;2022-08-21T05:36:45;14.52;;;9.52;;
3101;SDS011;1561;42.666;23.392;2022-08-21T05:39:13;12.88;;;9.75;;
3101;SDS011;1561;42.666;23.392;2022-08-21T05:41:56;12.30;;;9.80;;
3101;SDS011;1561;42.666;23.392;2022-08-21T05:44:31;11.93;;;10.52;;
3101;SDS011;1561;42.666;23.392;2022-08-21T05:47:02;11.70;;;9.52;;
3101;SDS011;1561;42.666;23.392;2022-08-21T05:49:33;11.10;;;10.00;;
3101;SDS011;1561;42.666;23.392;2022-08-21T05:52:01;8.73;;;7.90;;
3101;SDS011;1561;42.666;23.392;2022-08-21T05:54:30;8.82;;;7.93;;
3101;SDS011;1561;42.666;23.392;2022-08-21T05:57:03;10.43;;;7.60;;
3101;SDS011;1561;42.666;23.392;2022-08-21T05:59:33;11.70;;;10.45;;
3101;SDS011;1561;42.666;23.392;2022-08-21T06:02:01;15.05;;;11.00;;
3101;SDS011;1561;42.666;23.392;2022-08-21T06:04:28;12.32;;;11.02;;
3101;SDS011;1561;42.666;23.392;2022-08-21T06:06:55;13.27;;;10.88;;
3101;SDS011;1561;42.666;23.392;2022-08-21T06:09:23;12.65;;;11.35;;
3101;SDS011;1561;42.666;23.392;2022-08-21T06:11:50;11.88;;;10.60;;
3101;SDS011;1561;42.666;23.392;2022-08-21T06:14:19;14.10;;;10.55;;
3101;SDS011;1561;42.666;23.392;2022-08-21T06:16:46;13.63;;;11.18;;
3101;SDS011;1561;42.666;23.392;2022-08-21T06:19:14;14.75;;;11.00;;
3101;SDS011;1561;42.666;23.392;2022-08-21T06:21:44;14.82;;;11.43;;
3101;SDS011;1561;42.666;23.392;2022-08-21T06:24:12;13.85;;;11.05;;
3101;SDS011;1561;42.666;23.392;2022-08-21T06:26:43;12.52;;;11.00;;
3101;SDS011;1561;42.666;23.392;2022-08-21T06:29:20;18.23;;;10.82;;
3101;SDS011;1561;42.666;23.392;2022-08-21T06:31:47;14.40;;;11.63;;
3101;SDS011;1561;42.666;23.392;2022-08-21T06:34:18;15.18;;;10.57;;
3101;SDS011;1561;42.666;23.392;2022-08-21T06:36:46;17.48;;;10.18;;
3101;SDS011;1561;42.666;23.392;2022-08-21T06:39:16;10.00;;;9.00;;
3101;SDS011;1561;42.666;23.392;2022-08-21T06:41:43;12.07;;;9.50;;
3101;SDS011;1561;42.666;23.392;2022-08-21T06:44:10;11.85;;;10.18;;
3101;SDS011;1561;42.666;23.392;2022-08-21T06:46:43;12.27;;;9.20;;
3101;SDS011;1561;42.666;23.392;2022-08-21T06:49:13;11.82;;;8.60;;
3101;SDS011;1561;42.666;23.392;2022-08-21T06:51:40;10.70;;;8.73;;
3101;SDS011;1561;42.666;23.392;2022-08-21T06:54:07;11.00;;;9.90;;
3101;SDS011;1561;42.666;23.392;2022-08-21T06:56:35;9.70;;;8.80;;
3101;SDS011;1561;42.666;23.392;2022-08-21T06:59:04;9.45;;;8.45;;
3101;SDS011;1561;42.666;23.392;2022-08-21T07:01:33;9.65;;;8.60;;
3101;SDS011;1561;42.666;23.392;2022-08-21T07:04:01;10.90;;;9.73;;
3101;SDS011;1561;42.666;23.392;2022-08-21T07:06:31;10.50;;;8.77;;
3101;SDS011;1561;42.666;23.392;2022-08-21T07:08:58;13.30;;;9.52;;
3101;SDS011;1561;42.666;23.392;2022-08-21T07:11:26;9.43;;;8.48;;
3101;SDS011;1561;42.666;23.392;2022-08-21T07:13:53;11.07;;;8.52;;
3101;SDS011;1561;42.666;23.392;2022-08-21T07:16:21;11.30;;;8.23;;
3101;SDS011;1561;42.666;23.392;2022-08-21T07:18:48;11.40;;;8.98;;
3101;SDS011;1561;42.666;23.392;2022-08-21T07:21:18;9.90;;;8.68;;
3101;SDS011;1561;42.666;23.392;2022-08-21T07:23:46;10.43;;;8.85;;
3101;SDS011;1561;42.666;23.392;2022-08-21T07:26:18;8.50;;;7.70;;
3101;SDS011;1561;42.666;23.392;2022-08-21T07:28:47;11.38;;;9.45;;
3101;SDS011;1561;42.666;23.392;2022-08-21T07:31:18;11.75;;;8.18;;
3101;SDS011;1561;42.666;23.392;2022-08-21T07:33:46;9.98;;;7.63;;
3101;SDS011;1561;42.666;23.392;2022-08-21T07:36:22;8.13;;;7.32;;
3101;SDS011;1561;42.666;23.392;2022-08-21T07:38:57;8.88;;;8.07;;
3101;SDS011;1561;42.666;23.392;2022-08-21T07:41:26;8.05;;;7.32;;
3101;SDS011;1561;42.666;23.392;2022-08-21T07:43:57;8.13;;;7.20;;
3101;SDS011;1561;42.666;23.392;2022-08-21T07:46:26;12.15;;;7.45;;
3101;SDS011;1561;42.666;23.392;2022-08-21T07:48:58;9.30;;;6.72;;
3101;SDS011;1561;42.666;23.392;2022-08-21T07:51:27;8.07;;;6.20;;
3101;SDS011;1561;42.666;23.392;2022-08-21T07:54:00;8.02;;;6.03;;
3101;SDS011;1561;42.666;23.392;2022-08-21T07:56:28;8.10;;;6.97;;
3101;SDS011;1561;42.666;23.392;2022-08-21T07:58:57;8.00;;;7.05;;
3101;SDS011;1561;42.666;23.392;2022-08-21T08:01:27;8.25;;;6.90;;
3101;SDS011;1561;42.666;23.392;2022-08-21T08:03:57;7.82;;;6.80;;
3101;SDS011;1561;42.666;23.392;2022-08-21T08:06:33;11.57;;;7.32;;
3101;SDS011;1561;42.666;23.392;2022-08-21T08:09:02;9.90;;;7.70;;
3101;SDS011;1561;42.666;23.392;2022-08-21T08:11:31;9.10;;;7.80;;
3101;SDS011;1561;42.666;23.392;2022-08-21T08:13:58;9.32;;;8.38;;
3101;SDS011;1561;42.666;23.392;2022-08-21T08:16:30;9.35;;;8.43;;
3101;SDS011;1561;42.666;23.392;2022-08-21T08:19:10;10.50;;;8.52;;
3101;SDS011;1561;42.666;23.392;2022-08-21T08:21:39;11.23;;;9.25;;
3101;SDS011;1561;42.666;23.392;2022-08-21T08:24:07;8.52;;;7.65;;
3101;SDS011;1561;42.666;23.392;2022-08-21T08:26:34;10.55;;;7.60;;
3101;SDS011;1561;42.666;23.392;2022-08-21T08:29:04;11.18;;;8.45;;
3101;SDS011;1561;42.666;23.392;2022-08-21T08:31:32;11.82;;;9.15;;
3101;SDS011;1561;42.666;23.392;2022-08-21T08:34:00;8.52;;;7.65;;
3101;SDS011;1561;42.666;23.392;2022-08-21T08:36:31;12.80;;;8.57;;
3101;SDS011;1561;42.666;23.392;2022-08-21T08:39:01;9.63;;;8.02;;
3101;SDS011;1561;42.666;23.392;2022-08-21T08:41:30;10.23;;;7.30;;
3101;SDS011;1561;42.666;23.392;2022-08-21T08:44:02;11.88;;;7.72;;
3101;SDS011;1561;42.666;23.392;2022-08-21T08:46:31;9.35;;;7.30;;
3101;SDS011;1561;42.666;23.392;2022-08-21T08:49:06;10.45;;;7.40;;
3101;SDS011;1561;42.666;23.392;2022-08-21T08:51:43;9.57;;;7.60;;
3101;SDS011;1561;42.666;23.392;2022-08-21T08:54:17;9.63;;;8.18;;
3101;SDS011;1561;42.666;23.392;2022-08-21T08:56:56;12.27;;;8.50;;
3101;SDS011;1561;42.666;23.392;2022-08-21T08:59:30;14.07;;;8.98;;
3101;SDS011;1561;42.666;23.392;2022-08-21T09:02:03;11.05;;;9.13;;
3101;SDS011;1561;42.666;23.392;2022-08-21T09:04:31;12.48;;;9.55;;
3101;SDS011;1561;42.666;23.392;2022-08-21T09:07:01;11.45;;;10.02;;
3101;SDS011;1561;42.666;23.392;2022-08-21T09:09:44;10.95;;;9.38;;
3101;SDS011;1561;42.666;23.392;2022-08-21T09:12:29;12.88;;;9.23;;
3101;SDS011;1561;42.666;23.392;2022-08-21T09:15:06;11.38;;;10.02;;
3101;SDS011;1561;42.666;23.392;2022-08-21T09:17:54;12.93;;;9.32;;
3101;SDS011;1561;42.666;23.392;2022-08-21T09:20:40;16.27;;;9.90;;
3101;SDS011;1561;42.666;23.392;2022-08-21T09:23:25;9.75;;;8.75;;
3101;SDS011;1561;42.666;23.392;2022-08-21T09:26:05;11.23;;;8.50;;
3101;SDS011;1561;42.666;23.392;2022-08-21T09:28:42;13.07;;;9.32;;
3101;SDS011;1561;42.666;23.392;2022-08-21T09:31:21;10.15;;;8.90;;
3101;SDS011;1561;42.666;23.392;2022-08-21T09:33:57;10.13;;;9.02;;
3101;SDS011;1561;42.666;23.392;2022-08-21T09:39:23;10.25;;;9.25;;
3101;SDS011;1561;42.666;23.392;2022-08-21T09:41:59;13.13;;;8.15;;
3101;SDS011;1561;42.666;23.392;2022-08-21T09:44:36;9.73;;;8.60;;
3101;SDS011;1561;42.666;23.392;2022-08-21T09:47:11;8.93;;;7.93;;
3101;SDS011;1561;42.666;23.392;2022-08-21T09:49:39;9.00;;;8.20;;
3101;SDS011;1561;42.666;23.392;2022-08-21T09:55:19;10.77;;;8.85;;
3101;SDS011;1561;42.666;23.392;2022-08-21T09:58:16;13.48;;;9.55;;
3101;SDS011;1561;42.666;23.392;2022-08-21T10:00:44;8.80;;;8.00;;
3101;SDS011;1561;42.666;23.392;2022-08-21T10:03:15;9.68;;;8.60;;
3101;SDS011;1561;42.666;23.392;2022-08-21T10:05:51;10.50;;;9.25;;
3101;SDS011;1561;42.666;23.392;2022-08-21T10:08:34;12.00;;;8.27;;
3101;SDS011;1561;42.666;23.392;2022-08-21T10:11:12;10.65;;;7.47;;
3101;SDS011;1561;42.666;23.392;2022-08-21T10:13:51;13.75;;;8.75;;
3101;SDS011;1561;42.666;23.392;2022-08-21T10:16:32;11.52;;;8.27;;
3101;SDS011;1561;42.666;23.392;2022-08-21T10:19:16;11.50;;;8.20;;
3101;SDS011;1561;42.666;23.392;2022-08-21T10:21:59;9.40;;;8.38;;
3101;SDS011;1561;42.666;23.392;2022-08-21T10:24:34;10.00;;;7.93;;
3101;SDS011;1561;42.666;23.392;2022-08-21T10:27:14;10.90;;;8.98;;
3101;SDS011;1561;42.666;23.392;2022-08-21T10:29:46;11.77;;;8.05;;
3101;SDS011;1561;42.666;23.392;2022-08-21T10:32:27;8.07;;;7.32;;
3101;SDS011;1561;42.666;23.392;2022-08-21T10:35:07;11.60;;;7.85;;
3101;SDS011;1561;42.666;23.392;2022-08-21T10:37:41;9.73;;;7.90;;
3101;SDS011;1561;42.666;23.392;2022-08-21T10:40:15;9.73;;;7.70;;
3101;SDS011;1561;42.666;23.392;2022-08-21T10:42:53;10.02;;;8.63;;
3101;SDS011;1561;42.666;23.392;2022-08-21T10:45:47;7.80;;;6.95;;
3101;SDS011;1561;42.666;23.392;2022-08-21T10:48:24;9.82;;;6.93;;
3101;SDS011;1561;42.666;23.392;2022-08-21T10:51:05;7.78;;;7.03;;
3101;SDS011;1561;42.666;23.392;2022-08-21T10:53:47;9.30;;;6.78;;
3101;SDS011;1561;42.666;23.392;2022-08-21T10:56:28;7.75;;;6.82;;
3101;SDS011;1561;42.666;23.392;2022-08-21T10:59:09;9.18;;;6.43;;
3101;SDS011;1561;42.666;23.392;2022-08-21T11:01:58;9.40;;;7.38;;
3101;SDS011;1561;42.666;23.392;2022-08-21T11:04:36;8.10;;;7.30;;
3101;SDS011;1561;42.666;23.392;2022-08-21T11:07:18;8.45;;;6.82;;
3101;SDS011;1561;42.666;23.392;2022-08-21T11:09:50;7.30;;;6.68;;
3101;SDS011;1561;42.666;23.392;2022-08-21T11:12:25;8.23;;;6.43;;
3101;SDS011;1561;42.666;23.392;2022-08-21T11:15:03;6.43;;;5.93;;
3101;SDS011;1561;42.666;23.392;2022-08-21T11:17:43;7.68;;;6.18;;
3101;SDS011;1561;42.666;23.392;2022-08-21T11:20:15;7.32;;;6.20;;
3101;SDS011;1561;42.666;23.392;2022-08-21T11:22:52;10.93;;;6.80;;
3101;SDS011;1561;42.666;23.392;2022-08-21T11:25:26;7.00;;;6.32;;
3101;SDS011;1561;42.666;23.392;2022-08-21T11:28:00;7.60;;;6.50;;
3101;SDS011;1561;42.666;23.392;2022-08-21T11:30:38;7.28;;;6.57;;
3101;SDS011;1561;42.666;23.392;2022-08-21T11:33:19;7.38;;;6.72;;
3101;SDS011;1561;42.666;23.392;2022-08-21T11:35:58;12.95;;;9.52;;
3101;SDS011;1561;42.666;23.392;2022-08-21T11:38:33;7.65;;;6.70;;
3101;SDS011;1561;42.666;23.392;2022-08-21T11:41:11;9.68;;;7.20;;
3101;SDS011;1561;42.666;23.392;2022-08-21T11:43:47;7.50;;;6.80;;
3101;SDS011;1561;42.666;23.392;2022-08-21T11:46:27;9.32;;;7.65;;
3101;SDS011;1561;42.666;23.392;2022-08-21T11:49:02;7.55;;;6.75;;
3101;SDS011;1561;42.666;23.392;2022-08-21T11:51:51;8.55;;;7.75;;
3101;SDS011;1561;42.666;23.392;2022-08-21T11:54:26;8.70;;;7.97;;
3101;SDS011;1561;42.666;23.392;2022-08-21T11:57:03;7.68;;;6.88;;
3101;SDS011;1561;42.666;23.392;2022-08-21T11:59:36;8.30;;;7.25;;
3101;SDS011;1561;42.666;23.392;2022-08-21T12:02:12;8.80;;;7.80;;
3101;SDS011;1561;42.666;23.392;2022-08-21T12:04:47;8.15;;;7.43;;
3101;SDS011;1561;42.666;23.392;2022-08-21T12:07:31;7.43;;;6.57;;
3101;SDS011;1561;42.666;23.392;2022-08-21T12:10:00;11.27;;;7.60;;
3101;SDS011;1561;42.666;23.392;2022-08-21T12:12:31;8.40;;;7.57;;
3101;SDS011;1561;42.666;23.392;2022-08-21T12:15:13;9.90;;;7.90;;
3101;SDS011;1561;42.666;23.392;2022-08-21T12:17:55;8.45;;;6.82;;
3101;SDS011;1561;42.666;23.392;2022-08-21T12:20:56;8.48;;;7.60;;
3101;SDS011;1561;42.666;23.392;2022-08-21T12:23:27;9.60;;;7.30;;
3101;SDS011;1561;42.666;23.392;2022-08-21T12:26:03;8.10;;;7.30;;
3101;SDS011;1561;42.666;23.392;2022-08-21T12:28:35;8.15;;;6.90;;
3101;SDS011;1561;42.666;23.392;2022-08-21T12:31:04;7.95;;;7.13;;
3101;SDS011;1561;42.666;23.392;2022-08-21T12:33:56;9.18;;;7.95;;
3101;SDS011;1561;42.666;23.392;2022-08-21T12:36:58;9.35;;;7.78;;
3101;SDS011;1561;42.666;23.392;2022-08-21T12:39:33;7.68;;;7.07;;
3101;SDS011;1561;42.666;23.392;2022-08-21T12:42:06;10.00;;;7.70;;
3101;SDS011;1561;42.666;23.392;2022-08-21T12:44:42;7.40;;;6.70;;
3101;SDS011;1561;42.666;23.392;2022-08-21T12:47:21;8.45;;;7.22;;
3101;SDS011;1561;42.666;23.392;2022-08-21T12:49:58;8.02;;;7.10;;
3101;SDS011;1561;42.666;23.392;2022-08-21T12:52:32;8.40;;;7.60;;
3101;SDS011;1561;42.666;23.392;2022-08-21T12:55:04;7.93;;;6.50;;
3101;SDS011;1561;42.666;23.392;2022-08-21T12:57:35;8.70;;;7.30;;
3101;SDS011;1561;42.666;23.392;2022-08-21T13:00:05;7.38;;;6.68;;
3101;SDS011;1561;42.666;23.392;2022-08-21T13:02:41;8.35;;;7.55;;
3101;SDS011;1561;42.666;23.392;2022-08-21T13:05:12;8.68;;;7.60;;
3101;SDS011;1561;42.666;23.392;2022-08-21T13:07:49;7.72;;;7.03;;
3101;SDS011;1561;42.666;23.392;2022-08-21T13:10:20;8.27;;;7.43;;
3101;SDS011;1561;42.666;23.392;2022-08-21T13:12:54;7.68;;;6.95;;
3101;SDS011;1561;42.666;23.392;2022-08-21T13:15:26;14.02;;;8.43;;
3101;SDS011;1561;42.666;23.392;2022-08-21T13:17:58;8.23;;;6.40;;
3101;SDS011;1561;42.666;23.392;2022-08-21T13:20:29;7.22;;;6.53;;
3101;SDS011;1561;42.666;23.392;2022-08-21T13:23:21;11.00;;;6.88;;
3101;SDS011;1561;42.666;23.392;2022-08-21T13:25:54;9.80;;;5.90;;
3101;SDS011;1561;42.666;23.392;2022-08-21T13:28:31;7.95;;;7.18;;
3101;SDS011;1561;42.666;23.392;2022-08-21T13:31:00;10.73;;;7.50;;
3101;SDS011;1561;42.666;23.392;2022-08-21T13:33:33;7.22;;;6.57;;
3101;SDS011;1561;42.666;23.392;2022-08-21T13:36:04;7.13;;;6.53;;
3101;SDS011;1561;42.666;23.392;2022-08-21T13:38:40;8.48;;;7.25;;
3101;SDS011;1561;42.666;23.392;2022-08-21T13:41:12;7.90;;;6.88;;
3101;SDS011;1561;42.666;23.392;2022-08-21T13:43:50;9.73;;;7.35;;
3101;SDS011;1561;42.666;23.392;2022-08-21T13:46:35;7.88;;;6.75;;
3101;SDS011;1561;42.666;23.392;2022-08-21T13:49:06;11.68;;;7.13;;
3101;SDS011;1561;42.666;23.392;2022-08-21T13:51:38;8.07;;;7.28;;
3101;SDS011;1561;42.666;23.392;2022-08-21T13:54:15;9.52;;;8.00;;
3101;SDS011;1561;42.666;23.392;2022-08-21T13:56:48;8.10;;;7.30;;
3101;SDS011;1561;42.666;23.392;2022-08-21T13:59:26;8.88;;;7.85;;
3101;SDS011;1561;42.666;23.392;2022-08-21T14:01:57;8.55;;;7.28;;
3101;SDS011;1561;42.666;23.392;2022-08-21T14:04:35;8.15;;;6.95;;
3101;SDS011;1561;42.666;23.392;2022-08-21T14:07:15;13.50;;;6.90;;
3101;SDS011;1561;42.666;23.392;2022-08-21T14:09:47;8.15;;;7.35;;
3101;SDS011;1561;42.666;23.392;2022-08-21T14:12:24;7.03;;;6.22;;
3101;SDS011;1561;42.666;23.392;2022-08-21T14:15:03;8.27;;;7.45;;
3101;SDS011;1561;42.666;23.392;2022-08-21T14:17:33;7.40;;;6.68;;
3101;SDS011;1561;42.666;23.392;2022-08-21T14:20:03;8.63;;;6.80;;
3101;SDS011;1561;42.666;23.392;2022-08-21T14:22:39;7.78;;;7.05;;
3101;SDS011;1561;42.666;23.392;2022-08-21T14:25:27;10.30;;;7.20;;
3101;SDS011;1561;42.666;23.392;2022-08-21T14:27:56;9.25;;;7.50;;
3101;SDS011;1561;42.666;23.392;2022-08-21T14:30:30;9.63;;;7.45;;
3101;SDS011;1561;42.666;23.392;2022-08-21T14:33:00;8.45;;;7.47;;
3101;SDS011;1561;42.666;23.392;2022-08-21T14:35:29;8.18;;;7.47;;
3101;SDS011;1561;42.666;23.392;2022-08-21T14:37:58;9.25;;;8.10;;
3101;SDS011;1561;42.666;23.392;2022-08-21T14:40:29;8.90;;;7.80;;
3101;SDS011;1561;42.666;23.392;2022-08-21T14:43:00;7.35;;;6.70;;
3101;SDS011;1561;42.666;23.392;2022-08-21T14:45:28;12.38;;;8.18;;
3101;SDS011;1561;42.666;23.392;2022-08-21T14:48:01;8.13;;;7.38;;
3101;SDS011;1561;42.666;23.392;2022-08-21T14:50:29;7.32;;;6.47;;
3101;SDS011;1561;42.666;23.392;2022-08-21T14:53:01;7.75;;;6.97;;
3101;SDS011;1561;42.666;23.392;2022-08-21T14:55:36;10.02;;;7.03;;
3101;SDS011;1561;42.666;23.392;2022-08-21T14:58:19;7.93;;;7.13;;
3101;SDS011;1561;42.666;23.392;2022-08-21T15:00:51;8.35;;;7.45;;
3101;SDS011;1561;42.666;23.392;2022-08-21T15:03:21;10.55;;;8.00;;
3101;SDS011;1561;42.666;23.392;2022-08-21T15:05:54;7.72;;;7.00;;
3101;SDS011;1561;42.666;23.392;2022-08-21T15:08:21;8.40;;;7.47;;
3101;SDS011;1561;42.666;23.392;2022-08-21T15:10:51;10.85;;;6.80;;
3101;SDS011;1561;42.666;23.392;2022-08-21T15:13:23;7.82;;;7.03;;
3101;SDS011;1561;42.666;23.392;2022-08-21T15:15:51;8.38;;;7.45;;
3101;SDS011;1561;42.666;23.392;2022-08-21T15:18:23;10.65;;;7.50;;
3101;SDS011;1561;42.666;23.392;2022-08-21T15:20:52;11.60;;;7.60;;
3101;SDS011;1561;42.666;23.392;2022-08-21T15:23:19;8.20;;;7.40;;
3101;SDS011;1561;42.666;23.392;2022-08-21T15:25:48;8.25;;;7.13;;
3101;SDS011;1561;42.666;23.392;2022-08-21T15:28:20;8.90;;;8.00;;